createdAt,value
2023-04-24T00:00:41.816Z,97521.25
2023-04-24T00:03:44.704Z,97525.88
2023-04-24T00:06:50.626Z,97525.88
2023-04-24T00:09:53.254Z,97528.09
2023-04-24T00:12:55.844Z,97535.44
2023-04-24T00:15:58.609Z,97537.41
2023-04-24T00:19:01.808Z,97537.63
2023-04-24T00:22:06.241Z,97530.22
2023-04-24T00:25:09.541Z,97541.22
2023-04-24T00:28:12.012Z,97549.28
2023-04-24T00:31:14.566Z,97554.41
2023-04-24T00:34:17.111Z,97558.09
2023-04-24T00:37:21.516Z,97558.91
2023-04-24T00:40:24.342Z,97550.94
2023-04-24T00:43:26.943Z,97537.69
2023-04-24T00:46:29.644Z,97546.19
2023-04-24T00:49:32.373Z,97539.72
2023-04-24T00:52:36.926Z,97542.50
2023-04-24T00:55:39.646Z,97543.59
2023-04-24T00:58:42.675Z,97530.31
2023-04-24T01:01:45.904Z,97533.78
2023-04-24T01:04:48.513Z,97538.13
2023-04-24T01:07:52.473Z,97517.59
2023-04-24T01:10:55.138Z,97527.16
2023-04-24T01:13:59.832Z,97521.53
2023-04-24T01:17:02.407Z,97525.00
2023-04-24T01:20:06.982Z,97524.72
2023-04-24T01:23:11.378Z,97518.06
2023-04-24T01:26:15.355Z,97514.25
2023-04-24T01:29:18.232Z,97517.16
2023-04-24T01:32:21.019Z,97511.59
2023-04-24T01:35:23.794Z,97509.91
2023-04-24T01:38:27.736Z,97504.03
2023-04-24T01:41:30.471Z,97498.75
2023-04-24T01:44:33.148Z,97501.16
2023-04-24T01:47:35.829Z,97501.06
2023-04-24T01:50:38.390Z,97489.16
2023-04-24T01:53:42.278Z,97493.78
2023-04-24T01:56:45.430Z,97496.16
2023-04-24T01:59:47.991Z,97507.56
2023-04-24T02:02:50.966Z,97498.19
2023-04-24T02:05:53.689Z,97502.00
2023-04-24T02:08:57.616Z,97509.06
2023-04-24T02:12:00.190Z,97504.69
2023-04-24T02:15:02.726Z,97509.78
2023-04-24T02:18:05.385Z,97508.78
2023-04-24T02:21:08.016Z,97507.34
2023-04-24T02:24:11.851Z,97496.53
2023-04-24T02:27:14.547Z,97494.78
2023-04-24T02:30:17.075Z,97489.91
2023-04-24T02:33:19.660Z,97494.34
2023-04-24T02:36:22.244Z,97497.47
2023-04-24T02:39:26.166Z,97510.00
2023-04-24T02:42:28.758Z,97516.50
2023-04-24T02:45:31.352Z,97527.81
2023-04-24T02:48:34.004Z,97534.00
2023-04-24T02:51:39.114Z,97526.06
2023-04-24T02:54:42.963Z,97533.41
2023-04-24T02:57:45.501Z,97527.00
2023-04-24T03:00:48.270Z,97507.41
2023-04-24T03:03:51.078Z,97505.59
2023-04-24T03:06:55.702Z,97501.72
2023-04-24T03:10:00.357Z,97499.50
2023-04-24T03:13:02.915Z,97493.09
2023-04-24T03:16:05.839Z,97483.94
2023-04-24T03:19:08.378Z,97493.09
2023-04-24T03:22:10.993Z,97490.09
2023-04-24T03:25:15.070Z,97492.72
2023-04-24T03:28:17.587Z,97480.91
2023-04-24T03:31:20.199Z,97487.34
2023-04-24T03:34:22.762Z,97494.03
2023-04-24T03:37:25.558Z,97492.47
2023-04-24T03:40:30.622Z,97497.66
2023-04-24T03:43:36.211Z,97487.25
2023-04-24T03:46:39.063Z,97491.13
2023-04-24T03:49:46.084Z,97486.97
2023-04-24T03:52:48.734Z,97474.72
2023-04-24T03:55:55.966Z,97471.72
2023-04-24T03:58:58.518Z,97473.84
2023-04-24T04:02:01.732Z,97476.41
2023-04-24T04:05:04.864Z,97486.00
2023-04-24T04:08:07.946Z,97489.09
2023-04-24T04:11:11.966Z,97492.59
2023-04-24T04:14:14.918Z,97503.97
2023-04-24T04:17:18.615Z,97515.81
2023-04-24T04:20:23.223Z,97524.25
2023-04-24T04:23:25.915Z,97530.31
2023-04-24T04:26:38.748Z,97539.16
2023-04-24T04:29:42.205Z,97564.75
2023-04-24T04:32:44.821Z,97586.47
2023-04-24T04:35:49.594Z,97578.06
2023-04-24T04:38:52.134Z,97582.78
2023-04-24T04:41:56.177Z,97581.09
2023-04-24T04:44:59.125Z,97592.53
2023-04-24T04:48:03.200Z,97593.31
2023-04-24T04:51:06.444Z,97585.94
2023-04-24T04:54:09.129Z,97601.34
2023-04-24T04:57:13.654Z,97605.81
2023-04-24T05:00:17.078Z,97603.53
2023-04-24T05:03:21.632Z,97607.13
2023-04-24T05:06:24.747Z,97614.31
2023-04-24T05:09:28.307Z,97627.28
2023-04-24T05:12:32.325Z,97625.88
2023-04-24T05:15:35.931Z,97639.00
2023-04-24T05:18:38.641Z,97639.13
2023-04-24T05:21:41.512Z,97649.19
2023-04-24T05:24:44.135Z,97650.63
2023-04-24T05:27:48.160Z,97654.41
2023-04-24T05:30:51.251Z,97654.59
2023-04-24T05:33:53.893Z,97667.66
2023-04-24T05:36:56.513Z,97672.19
2023-04-24T05:39:59.506Z,97685.75
2023-04-24T05:43:03.782Z,97686.13
2023-04-24T05:46:06.853Z,97678.78
2023-04-24T05:49:09.506Z,97683.66
2023-04-24T05:52:12.193Z,97694.75
2023-04-24T05:55:14.817Z,97703.16
2023-04-24T05:58:19.018Z,97710.72
2023-04-24T06:01:21.779Z,97711.28
2023-04-24T06:04:25.766Z,97713.03
2023-04-24T06:07:28.781Z,97722.41
2023-04-24T06:10:31.520Z,97714.34
2023-04-24T06:13:35.520Z,97707.00
2023-04-24T06:16:39.944Z,97707.16
2023-04-24T06:19:42.813Z,97702.34
2023-04-24T06:22:45.674Z,97705.22
2023-04-24T06:25:48.322Z,97706.16
2023-04-24T06:28:52.382Z,97705.53
2023-04-24T06:31:54.967Z,97706.44
2023-04-24T06:34:59.085Z,97712.09
2023-04-24T06:38:02.183Z,97702.84
2023-04-24T06:41:06.204Z,97703.72
2023-04-24T06:44:10.334Z,97701.38
2023-04-24T06:47:14.492Z,97694.94
2023-04-24T06:50:17.196Z,97699.81
2023-04-24T06:53:19.831Z,97704.59
2023-04-24T06:56:22.657Z,97705.25
2023-04-24T06:59:26.760Z,97709.03
2023-04-24T07:02:29.701Z,97713.66
2023-04-24T07:05:35.138Z,97712.31
2023-04-24T07:08:37.900Z,97705.63
2023-04-24T07:11:41.711Z,97705.91
2023-04-24T07:14:45.741Z,97698.47
2023-04-24T07:17:48.721Z,97701.84
2023-04-24T07:20:52.110Z,97717.91
2023-04-24T07:23:54.941Z,97724.34
2023-04-24T07:26:57.996Z,97724.47
2023-04-24T07:30:02.189Z,97737.91
2023-04-24T07:33:05.055Z,97722.03
2023-04-24T07:36:08.015Z,97741.38
2023-04-24T07:39:10.887Z,97741.31
2023-04-24T07:42:13.700Z,97736.22
2023-04-24T07:45:17.945Z,97728.47
2023-04-24T07:48:22.557Z,97751.97
2023-04-24T07:51:25.229Z,97757.09
2023-04-24T07:54:27.855Z,97761.88
2023-04-24T07:57:30.514Z,97765.69
2023-04-24T08:00:35.118Z,97767.25
2023-04-24T08:03:38.045Z,97769.50
2023-04-24T08:06:40.853Z,97774.72
2023-04-24T08:09:43.607Z,97796.66
2023-04-24T08:12:46.466Z,97794.00
2023-04-24T08:15:50.700Z,97785.41
2023-04-24T08:18:53.733Z,97784.31
2023-04-24T08:21:56.674Z,97795.28
2023-04-24T08:25:01.845Z,97799.13
2023-04-24T08:28:05.307Z,97797.91
2023-04-24T08:31:09.359Z,97802.59
2023-04-24T08:34:12.426Z,97802.84
2023-04-24T08:37:15.686Z,97794.03
2023-04-24T08:40:19.096Z,97799.44
2023-04-24T08:43:23.866Z,97808.63
2023-04-24T08:46:28.196Z,97820.63
2023-04-24T08:49:31.359Z,97822.25
2023-04-24T08:52:34.819Z,97833.78
2023-04-24T08:55:37.739Z,97829.59
2023-04-24T08:58:41.179Z,97842.03
2023-04-24T09:01:46.151Z,97842.59
2023-04-24T09:04:49.550Z,97831.50
2023-04-24T09:07:58.227Z,97835.38
2023-04-24T09:11:03.666Z,97851.03
2023-04-24T09:14:06.584Z,97835.31
2023-04-24T09:17:10.727Z,97854.88
2023-04-24T09:20:13.458Z,97859.34
2023-04-24T09:23:19.808Z,97859.13
2023-04-24T09:26:26.234Z,97880.19
2023-04-24T09:29:29.398Z,97870.16
2023-04-24T09:32:33.683Z,97883.66
2023-04-24T09:35:36.389Z,97877.16
2023-04-24T09:38:40.138Z,97887.53
2023-04-24T09:41:46.651Z,97877.94
2023-04-24T09:44:56.981Z,97868.88
2023-04-24T09:48:11.341Z,97876.16
2023-04-24T09:51:16.209Z,97885.28
2023-04-24T09:54:22.103Z,97890.19
2023-04-24T09:57:25.516Z,97881.91
2023-04-24T10:00:29.692Z,97886.94
2023-04-24T10:03:34.267Z,97893.22
2023-04-24T10:06:37.693Z,97896.41
2023-04-24T10:09:40.455Z,97892.34
2023-04-24T10:12:43.364Z,97885.88
2023-04-24T10:15:46.258Z,97892.53
2023-04-24T10:18:50.741Z,97889.75
2023-04-24T10:21:53.534Z,97884.50
2023-04-24T10:24:56.168Z,97893.81
2023-04-24T10:28:00.820Z,97904.94
2023-04-24T10:31:03.753Z,97897.47
2023-04-24T10:34:08.432Z,97897.00
2023-04-24T10:37:11.119Z,97893.41
2023-04-24T10:40:19.192Z,97908.09
2023-04-24T10:43:21.917Z,97913.69
2023-04-24T10:46:24.578Z,97915.22
2023-04-24T10:49:32.047Z,97896.16
2023-04-24T10:52:46.200Z,97910.09
2023-04-24T10:55:51.248Z,97909.53
2023-04-24T10:58:55.480Z,97910.59
2023-04-24T11:01:58.102Z,97921.50
2023-04-24T11:05:05.254Z,97924.22
2023-04-24T11:08:15.653Z,97927.47
2023-04-24T11:11:21.879Z,97929.78
2023-04-24T11:14:24.549Z,97932.81
2023-04-24T11:17:34.588Z,97943.47
2023-04-24T11:20:38.851Z,97941.91
2023-04-24T11:23:41.880Z,97938.22
2023-04-24T11:26:44.580Z,97931.44
2023-04-24T11:29:49.534Z,97940.06
2023-04-24T11:32:53.536Z,97949.91
2023-04-24T11:35:57.600Z,97949.63
2023-04-24T11:39:00.487Z,97946.63
2023-04-24T11:42:04.955Z,97953.75
2023-04-24T11:45:11.631Z,97953.31
2023-04-24T11:48:14.234Z,97953.44
2023-04-24T11:51:18.548Z,97977.81
2023-04-24T11:54:21.334Z,97972.03
2023-04-24T11:57:27.516Z,97983.34
2023-04-24T12:00:31.514Z,97990.78
2023-04-24T12:03:34.425Z,97988.94
2023-04-24T12:06:38.539Z,97965.88
2023-04-24T12:09:47.622Z,97970.16
2023-04-24T12:12:52.321Z,97976.91
2023-04-24T12:15:55.064Z,97980.47
2023-04-24T12:19:01.291Z,97986.13
2023-04-24T12:22:07.454Z,97979.16
2023-04-24T12:25:12.625Z,97979.50
2023-04-24T12:28:15.583Z,97992.03
2023-04-24T12:31:18.992Z,97984.00
2023-04-24T12:34:22.309Z,97996.94
2023-04-24T12:37:27.611Z,97990.19
2023-04-24T12:40:32.578Z,97992.41
2023-04-24T12:43:53.452Z,97999.84
2023-04-24T12:46:56.222Z,97996.75
2023-04-24T12:49:59.289Z,97990.59
2023-04-24T12:53:02.224Z,97974.34
2023-04-24T12:56:05.289Z,97985.38
2023-04-24T12:59:09.314Z,97992.06
2023-04-24T13:02:12.238Z,97985.94
2023-04-24T13:05:15.037Z,97993.22
2023-04-24T13:08:17.715Z,97995.13
2023-04-24T13:11:20.334Z,98010.72
2023-04-24T13:14:24.279Z,98009.31
2023-04-24T13:17:26.904Z,98000.31
2023-04-24T13:20:29.665Z,98009.19
2023-04-24T13:23:32.345Z,97997.63
2023-04-24T13:26:34.936Z,97995.16
2023-04-24T13:29:39.429Z,97998.44
2023-04-24T13:32:42.364Z,97996.78
2023-04-24T13:35:45.147Z,97992.28
2023-04-24T13:38:47.736Z,97984.00
2023-04-24T13:41:50.510Z,97986.66
2023-04-24T13:44:55.078Z,97991.97
2023-04-24T13:47:58.009Z,97993.00
2023-04-24T13:51:00.720Z,97996.19
2023-04-24T13:54:03.343Z,98036.53
2023-04-24T13:57:06.118Z,98041.16
2023-04-24T14:00:11.784Z,98037.53
2023-04-24T14:03:14.686Z,98024.31
2023-04-24T14:06:17.624Z,98013.66
2023-04-24T14:09:20.801Z,98019.84
2023-04-24T14:12:23.639Z,98019.91
2023-04-24T14:15:27.669Z,98018.03
2023-04-24T14:18:30.327Z,98005.72
2023-04-24T14:21:33.168Z,98017.53
2023-04-24T14:24:35.976Z,98003.66
2023-04-24T14:27:38.769Z,98016.88
2023-04-24T14:30:42.910Z,98015.19
2023-04-24T14:33:45.732Z,98022.69
2023-04-24T14:36:48.539Z,98014.88
2023-04-24T14:40:05.592Z,98017.50
2023-04-24T14:43:13.936Z,98008.25
2023-04-24T14:46:18.393Z,98004.84
2023-04-24T14:49:21.133Z,98007.09
2023-04-24T14:52:23.999Z,97994.34
2023-04-24T14:55:27.135Z,98001.53
2023-04-24T14:58:29.946Z,97997.97
2023-04-24T15:01:33.997Z,97995.78
2023-04-24T15:04:38.257Z,97998.91
2023-04-24T15:07:42.473Z,97993.19
2023-04-24T15:10:45.664Z,97993.69
2023-04-24T15:13:48.504Z,97996.72
2023-04-24T15:16:52.826Z,97990.19
2023-04-24T15:19:55.610Z,97992.06
2023-04-24T15:23:00.329Z,97992.84
2023-04-24T15:26:03.345Z,97998.66
2023-04-24T15:29:06.120Z,97999.19
2023-04-24T15:32:10.572Z,97993.00
2023-04-24T15:35:13.418Z,97998.50
2023-04-24T15:38:16.368Z,98015.63
2023-04-24T15:41:19.078Z,98028.38
2023-04-24T15:44:22.413Z,98020.06
2023-04-24T15:47:27.096Z,98008.41
2023-04-24T15:50:29.766Z,98012.31
2023-04-24T15:53:32.636Z,98000.66
2023-04-24T15:56:37.047Z,97984.75
2023-04-24T15:59:39.940Z,97983.78
2023-04-24T16:02:44.083Z,97978.56
2023-04-24T16:05:46.932Z,97991.72
2023-04-24T16:08:49.911Z,97993.13
2023-04-24T16:11:52.916Z,97994.44
2023-04-24T16:14:55.833Z,97984.88
2023-04-24T16:17:59.906Z,97994.44
2023-04-24T16:21:02.491Z,97988.19
2023-04-24T16:24:05.389Z,97988.63
2023-04-24T16:27:08.041Z,97987.13
2023-04-24T16:30:11.971Z,97984.69
2023-04-24T16:33:16.012Z,97977.91
2023-04-24T16:36:18.676Z,97971.69
2023-04-24T16:39:21.592Z,97982.16
2023-04-24T16:42:24.337Z,97977.56
2023-04-24T16:45:27.154Z,97981.56
2023-04-24T16:48:31.570Z,97982.84
2023-04-24T16:51:34.291Z,97980.59
2023-04-24T16:54:37.088Z,97982.53
2023-04-24T16:57:39.940Z,97982.50
2023-04-24T17:00:42.922Z,97972.38
2023-04-24T17:03:47.596Z,97975.31
2023-04-24T17:06:50.447Z,97971.94
2023-04-24T17:09:53.451Z,97972.63
2023-04-24T17:12:56.523Z,97971.63
2023-04-24T17:15:59.361Z,97982.63
2023-04-24T17:19:04.337Z,97988.97
2023-04-24T17:22:06.898Z,97979.38
2023-04-24T17:25:10.112Z,97971.28
2023-04-24T17:28:17.639Z,97968.75
2023-04-24T17:31:20.328Z,97972.97
2023-04-24T17:34:24.324Z,97973.63
2023-04-24T17:37:27.088Z,97971.28
2023-04-24T17:40:29.676Z,97976.81
2023-04-24T17:43:32.423Z,97972.69
2023-04-24T17:46:35.596Z,97967.56
2023-04-24T17:49:39.687Z,97968.28
2023-04-24T17:52:42.468Z,97972.69
2023-04-24T17:55:46.356Z,97968.53
2023-04-24T17:58:49.164Z,97966.50
2023-04-24T18:01:53.184Z,97975.44
2023-04-24T18:04:57.339Z,97971.19
2023-04-24T18:08:01.553Z,97974.72
2023-04-24T18:11:04.385Z,97977.03
2023-04-24T18:14:06.938Z,97979.59
2023-04-24T18:17:09.693Z,97987.03
2023-04-24T18:20:15.249Z,97994.25
2023-04-24T18:23:17.849Z,97991.06
2023-04-24T18:26:20.723Z,97998.59
2023-04-24T18:29:23.391Z,98001.25
2023-04-24T18:32:26.524Z,98000.41
2023-04-24T18:35:30.796Z,98007.19
2023-04-24T18:38:33.493Z,98010.94
2023-04-24T18:41:36.184Z,98009.94
2023-04-24T18:44:41.119Z,98003.41
2023-04-24T18:47:44.086Z,98006.88
2023-04-24T18:50:48.144Z,98015.34
2023-04-24T18:53:50.961Z,98025.16
2023-04-24T18:56:53.961Z,98013.66
2023-04-24T18:59:56.643Z,98025.25
2023-04-24T19:02:59.592Z,98029.31
2023-04-24T19:06:03.691Z,98035.88
2023-04-24T19:09:07.000Z,98033.78
2023-04-24T19:12:09.990Z,98035.47
2023-04-24T19:15:13.183Z,98034.09
2023-04-24T19:18:17.122Z,98043.81
2023-04-24T19:21:21.307Z,98046.50
2023-04-24T19:24:24.623Z,98041.59
2023-04-24T19:27:27.388Z,98047.69
2023-04-24T19:30:30.088Z,98047.19
2023-04-24T19:33:32.619Z,98046.06
2023-04-24T19:36:37.116Z,98043.66
2023-04-24T19:39:39.845Z,98047.41
2023-04-24T19:42:44.670Z,98050.69
2023-04-24T19:45:47.415Z,98049.03
2023-04-24T19:48:50.639Z,98053.59
2023-04-24T19:51:54.911Z,98051.13
2023-04-24T19:54:57.804Z,98049.41
2023-04-24T19:58:00.524Z,98050.72
2023-04-24T20:01:04.055Z,98052.47
2023-04-24T20:04:07.877Z,98050.72
2023-04-24T20:07:12.151Z,98055.88
2023-04-24T20:10:14.732Z,98051.91
2023-04-24T20:13:17.615Z,98052.91
2023-04-24T20:16:20.615Z,98054.00
2023-04-24T20:19:23.444Z,98054.06
2023-04-24T20:22:27.620Z,98044.22
2023-04-24T20:25:30.325Z,98050.09
2023-04-24T20:28:32.989Z,98046.13
2023-04-24T20:31:35.853Z,98048.16
2023-04-24T20:34:38.571Z,98053.91
2023-04-24T20:37:42.832Z,98049.63
2023-04-24T20:40:57.219Z,98047.50
2023-04-24T20:44:00.870Z,98033.53
2023-04-24T20:47:03.858Z,98037.66
2023-04-24T20:50:07.904Z,98035.25
2023-04-24T20:53:11.854Z,98033.59
2023-04-24T20:56:14.535Z,98030.41
2023-04-24T20:59:17.323Z,98036.44
2023-04-24T21:02:20.068Z,98034.16
2023-04-24T21:05:22.894Z,98035.38
2023-04-24T21:08:26.865Z,98034.16
2023-04-24T21:11:29.636Z,98034.91
2023-04-24T21:14:32.250Z,98030.00
2023-04-24T21:17:34.975Z,98029.44
2023-04-24T21:20:37.550Z,98028.84
2023-04-24T21:23:41.563Z,98019.47
2023-04-24T21:26:44.172Z,98024.47
2023-04-24T21:29:47.553Z,98027.03
2023-04-24T21:32:52.036Z,98029.19
2023-04-24T21:35:54.866Z,98022.38
2023-04-24T21:38:58.979Z,98025.72
2023-04-24T21:42:01.677Z,98021.53
2023-04-24T21:45:04.480Z,98023.41
2023-04-24T21:48:07.563Z,98013.50
2023-04-24T21:51:10.254Z,98016.75
2023-04-24T21:54:14.205Z,98015.13
2023-04-24T21:57:16.941Z,98012.53
2023-04-24T22:00:19.610Z,98003.72
2023-04-24T22:03:22.238Z,97996.31
2023-04-24T22:06:24.910Z,97992.06
2023-04-24T22:09:28.794Z,97994.72
2023-04-24T22:12:31.695Z,97992.94
2023-04-24T22:15:34.333Z,97986.34
2023-04-24T22:18:46.625Z,97988.47
2023-04-24T22:21:49.833Z,97983.13
2023-04-24T22:24:53.808Z,97984.03
2023-04-24T22:27:56.774Z,97979.28
2023-04-24T22:30:59.371Z,97979.47
2023-04-24T22:34:01.924Z,97967.03
2023-04-24T22:37:04.441Z,97966.25
2023-04-24T22:40:10.364Z,97968.09
2023-04-24T22:43:13.323Z,97971.25
2023-04-24T22:46:15.853Z,97965.41
2023-04-24T22:49:18.425Z,97970.03
2023-04-24T22:52:21.725Z,97958.94
2023-04-24T22:55:25.811Z,97960.97
2023-04-24T22:58:28.394Z,97954.53
2023-04-24T23:01:31.060Z,97965.38
2023-04-24T23:04:33.816Z,97965.97
2023-04-24T23:07:37.499Z,97964.16
2023-04-24T23:10:41.531Z,97963.75
2023-04-24T23:13:44.268Z,97955.28
2023-04-24T23:16:46.878Z,97963.38
2023-04-24T23:19:49.668Z,97961.00
2023-04-24T23:22:52.349Z,97966.34
2023-04-24T23:25:56.381Z,97967.78
2023-04-24T23:28:58.861Z,97968.97
2023-04-24T23:32:01.896Z,97984.94
2023-04-24T23:35:04.801Z,97979.44
2023-04-24T23:38:07.297Z,97969.31
2023-04-24T23:41:11.216Z,97968.63
2023-04-24T23:44:14.442Z,97973.19
2023-04-24T23:47:16.972Z,97973.50
2023-04-24T23:50:19.664Z,97969.19
2023-04-24T23:53:22.192Z,97960.16
2023-04-24T23:56:26.651Z,97952.34
2023-04-24T23:59:30.731Z,97964.59
